sensor_id;sensor_type;location;lat;lon;timestamp;pressure;altitude;pressure_sealevel;temperature;humidity
71485;BME280;59300;52.074;4.758;2022-08-11T00:01:35;102379.72;;;17.55;91.16
71485;BME280;59300;52.074;4.758;2022-08-11T00:04:37;102372.78;;;17.49;91.15
71485;BME280;59300;52.074;4.758;2022-08-11T00:07:46;102375.63;;;17.45;91.65
71485;BME280;59300;52.074;4.758;2022-08-11T00:10:54;102372.88;;;17.46;91.71
71485;BME280;59300;52.074;4.758;2022-08-11T00:13:57;102378.22;;;17.46;91.62
71485;BME280;59300;52.074;4.758;2022-08-11T00:17:02;102377.31;;;17.47;91.56
71485;BME280;59300;52.074;4.758;2022-08-11T00:20:07;102385.63;;;17.38;92.10
71485;BME280;59300;52.074;4.758;2022-08-11T00:23:19;102382.38;;;17.28;92.57
71485;BME280;59300;52.074;4.758;2022-08-11T00:26:22;102386.09;;;17.23;93.03
71485;BME280;59300;52.074;4.758;2022-08-11T00:29:24;102388.06;;;17.17;93.23
71485;BME280;59300;52.074;4.758;2022-08-11T00:32:27;102379.25;;;17.14;93.67
71485;BME280;59300;52.074;4.758;2022-08-11T00:35:30;102381.88;;;17.15;93.38
71485;BME280;59300;52.074;4.758;2022-08-11T00:38:53;102383.66;;;17.15;93.11
71485;BME280;59300;52.074;4.758;2022-08-11T00:45:40;102389.34;;;17.04;93.21
71485;BME280;59300;52.074;4.758;2022-08-11T00:48:58;102396.81;;;16.91;93.66
71485;BME280;59300;52.074;4.758;2022-08-11T00:59:25;102396.38;;;16.75;94.47
71485;BME280;59300;52.074;4.758;2022-08-11T01:03:09;102389.44;;;16.69;94.61
71485;BME280;59300;52.074;4.758;2022-08-11T01:13:37;102378.97;;;16.63;94.34
71485;BME280;59300;52.074;4.758;2022-08-11T01:37:41;102379.63;;;16.40;94.17
71485;BME280;59300;52.074;4.758;2022-08-11T01:47:34;102364.25;;;16.18;95.26
71485;BME280;59300;52.074;4.758;2022-08-11T01:51:02;102376.00;;;16.09;95.16
71485;BME280;59300;52.074;4.758;2022-08-11T01:54:15;102372.66;;;16.01;96.01
71485;BME280;59300;52.074;4.758;2022-08-11T02:07:35;102374.94;;;15.80;96.48
71485;BME280;59300;52.074;4.758;2022-08-11T02:10:45;102379.47;;;15.77;97.08
71485;BME280;59300;52.074;4.758;2022-08-11T02:17:22;102372.34;;;15.77;97.12
71485;BME280;59300;52.074;4.758;2022-08-11T02:20:56;102363.59;;;15.74;97.45
71485;BME280;59300;52.074;4.758;2022-08-11T02:24:07;102362.78;;;15.70;97.87
71485;BME280;59300;52.074;4.758;2022-08-11T02:27:24;102365.56;;;15.65;97.71
71485;BME280;59300;52.074;4.758;2022-08-11T02:30:32;102365.53;;;15.67;97.37
71485;BME280;59300;52.074;4.758;2022-08-11T02:33:35;102358.44;;;15.68;97.14
71485;BME280;59300;52.074;4.758;2022-08-11T02:40:15;102355.06;;;15.59;97.04
71485;BME280;59300;52.074;4.758;2022-08-11T02:43:27;102346.47;;;15.48;97.62
71485;BME280;59300;52.074;4.758;2022-08-11T02:46:40;102350.03;;;15.47;98.10
71485;BME280;59300;52.074;4.758;2022-08-11T02:49:52;102349.13;;;15.48;97.32
71485;BME280;59300;52.074;4.758;2022-08-11T02:53:39;102344.59;;;15.51;96.35
71485;BME280;59300;52.074;4.758;2022-08-11T02:57:15;102345.31;;;15.58;95.64
71485;BME280;59300;52.074;4.758;2022-08-11T03:00:20;102342.72;;;15.57;95.89
71485;BME280;59300;52.074;4.758;2022-08-11T03:03:30;102344.41;;;15.59;95.30
71485;BME280;59300;52.074;4.758;2022-08-11T03:06:35;102344.66;;;15.50;95.39
71485;BME280;59300;52.074;4.758;2022-08-11T03:13:42;102344.03;;;15.39;95.70
71485;BME280;59300;52.074;4.758;2022-08-11T03:16:57;102339.47;;;15.44;94.84
71485;BME280;59300;52.074;4.758;2022-08-11T03:20:22;102338.78;;;15.37;94.86
71485;BME280;59300;52.074;4.758;2022-08-11T03:23:48;102330.88;;;15.32;95.25
71485;BME280;59300;52.074;4.758;2022-08-11T03:30:24;102338.06;;;15.29;95.12
71485;BME280;59300;52.074;4.758;2022-08-11T03:37:54;102339.78;;;15.31;94.71
71485;BME280;59300;52.074;4.758;2022-08-11T03:41:06;102332.72;;;15.30;94.34
71485;BME280;59300;52.074;4.758;2022-08-11T03:48:06;102332.94;;;15.21;94.58
71485;BME280;59300;52.074;4.758;2022-08-11T03:51:29;102334.84;;;15.16;94.96
71485;BME280;59300;52.074;4.758;2022-08-11T03:55:13;102331.34;;;15.12;94.64
71485;BME280;59300;52.074;4.758;2022-08-11T03:58:54;102335.69;;;15.16;94.66
71485;BME280;59300;52.074;4.758;2022-08-11T04:05:35;102334.16;;;15.06;95.11
71485;BME280;59300;52.074;4.758;2022-08-11T04:12:27;102329.81;;;15.02;94.97
71485;BME280;59300;52.074;4.758;2022-08-11T04:23:00;102329.34;;;14.84;96.47
71485;BME280;59300;52.074;4.758;2022-08-11T04:26:33;102335.41;;;14.91;96.17
71485;BME280;59300;52.074;4.758;2022-08-11T04:29:55;102335.28;;;14.96;95.70
71485;BME280;59300;52.074;4.758;2022-08-11T04:47:18;102331.56;;;15.04;95.25
71485;BME280;59300;52.074;4.758;2022-08-11T05:11:31;102339.88;;;15.28;94.32
71485;BME280;59300;52.074;4.758;2022-08-11T05:14:44;102329.00;;;15.38;93.95
71485;BME280;59300;52.074;4.758;2022-08-11T05:18:15;102335.00;;;15.46;93.48
71485;BME280;59300;52.074;4.758;2022-08-11T05:21:20;102328.69;;;15.50;93.41
71485;BME280;59300;52.074;4.758;2022-08-11T05:24:29;102333.06;;;15.52;92.88
71485;BME280;59300;52.074;4.758;2022-08-11T05:28:14;102339.06;;;15.61;92.55
71485;BME280;59300;52.074;4.758;2022-08-11T05:31:17;102337.03;;;15.71;91.87
71485;BME280;59300;52.074;4.758;2022-08-11T05:34:46;102336.88;;;15.77;91.64
71485;BME280;59300;52.074;4.758;2022-08-11T05:37:48;102345.59;;;15.84;92.12
71485;BME280;59300;52.074;4.758;2022-08-11T05:40:51;102344.50;;;15.92;91.89
71485;BME280;59300;52.074;4.758;2022-08-11T05:44:02;102348.66;;;16.03;91.07
71485;BME280;59300;52.074;4.758;2022-08-11T05:47:23;102349.19;;;16.17;90.82
71485;BME280;59300;52.074;4.758;2022-08-11T05:50:26;102342.78;;;16.84;87.93
71485;BME280;59300;52.074;4.758;2022-08-11T05:53:33;102349.16;;;18.18;81.44
71485;BME280;59300;52.074;4.758;2022-08-11T05:56:50;102343.31;;;19.68;74.84
71485;BME280;59300;52.074;4.758;2022-08-11T05:59:58;102345.72;;;20.76;69.43
71485;BME280;59300;52.074;4.758;2022-08-11T06:03:01;102353.84;;;20.75;69.93
71485;BME280;59300;52.074;4.758;2022-08-11T06:06:07;102343.19;;;21.66;65.46
71485;BME280;59300;52.074;4.758;2022-08-11T06:09:10;102350.22;;;20.95;68.04
71485;BME280;59300;52.074;4.758;2022-08-11T06:12:23;102346.03;;;20.09;70.99
71485;BME280;59300;52.074;4.758;2022-08-11T06:15:29;102350.59;;;19.64;73.92
71485;BME280;59300;52.074;4.758;2022-08-11T06:18:31;102344.72;;;19.34;74.81
71485;BME280;59300;52.074;4.758;2022-08-11T06:21:34;102346.47;;;19.78;73.70
71485;BME280;59300;52.074;4.758;2022-08-11T06:24:38;102350.50;;;20.89;68.18
71485;BME280;59300;52.074;4.758;2022-08-11T06:27:43;102354.59;;;20.58;69.49
71485;BME280;59300;52.074;4.758;2022-08-11T06:30:46;102354.28;;;20.05;71.28
71485;BME280;59300;52.074;4.758;2022-08-11T06:37:29;102352.97;;;19.50;74.05
71485;BME280;59300;52.074;4.758;2022-08-11T06:40:42;102343.47;;;19.43;74.53
71485;BME280;59300;52.074;4.758;2022-08-11T06:47:15;102350.72;;;19.61;72.55
71485;BME280;59300;52.074;4.758;2022-08-11T06:50:19;102347.72;;;19.69;72.55
71485;BME280;59300;52.074;4.758;2022-08-11T06:53:22;102356.13;;;19.82;71.91
71485;BME280;59300;52.074;4.758;2022-08-11T06:56:27;102353.97;;;20.11;69.88
71485;BME280;59300;52.074;4.758;2022-08-11T06:59:29;102363.59;;;20.36;69.12
71485;BME280;59300;52.074;4.758;2022-08-11T07:02:36;102358.03;;;20.80;67.62
71485;BME280;59300;52.074;4.758;2022-08-11T07:06:27;102355.50;;;22.88;60.11
71485;BME280;59300;52.074;4.758;2022-08-11T07:10:14;102352.50;;;23.87;56.85
71485;BME280;59300;52.074;4.758;2022-08-11T07:13:21;102343.19;;;23.62;56.94
71485;BME280;59300;52.074;4.758;2022-08-11T07:16:46;102347.19;;;23.25;58.13
71485;BME280;59300;52.074;4.758;2022-08-11T07:19:57;102350.03;;;23.06;59.02
71485;BME280;59300;52.074;4.758;2022-08-11T07:23:01;102355.66;;;23.17;58.55
71485;BME280;59300;52.074;4.758;2022-08-11T07:26:03;102352.75;;;23.99;56.06
71485;BME280;59300;52.074;4.758;2022-08-11T07:29:06;102346.31;;;25.43;52.54
71485;BME280;59300;52.074;4.758;2022-08-11T07:32:13;102344.47;;;26.86;49.14
71485;BME280;59300;52.074;4.758;2022-08-11T07:35:19;102338.88;;;27.24;47.53
71485;BME280;59300;52.074;4.758;2022-08-11T07:38:27;102345.47;;;28.39;44.00
71485;BME280;59300;52.074;4.758;2022-08-11T07:41:33;102347.19;;;29.18;42.08
71485;BME280;59300;52.074;4.758;2022-08-11T07:44:35;102347.06;;;28.75;42.91
71485;BME280;59300;52.074;4.758;2022-08-11T07:47:38;102345.66;;;29.36;41.69
71485;BME280;59300;52.074;4.758;2022-08-11T07:50:40;102335.72;;;29.47;41.08
71485;BME280;59300;52.074;4.758;2022-08-11T07:53:42;102342.34;;;30.48;39.08
71485;BME280;59300;52.074;4.758;2022-08-11T07:57:07;102337.69;;;30.29;39.14
71485;BME280;59300;52.074;4.758;2022-08-11T08:00:35;102343.03;;;31.11;37.63
71485;BME280;59300;52.074;4.758;2022-08-11T08:03:38;102337.06;;;31.47;35.94
71485;BME280;59300;52.074;4.758;2022-08-11T08:06:55;102339.94;;;31.25;36.48
71485;BME280;59300;52.074;4.758;2022-08-11T08:09:58;102346.25;;;31.36;35.52
71485;BME280;59300;52.074;4.758;2022-08-11T08:13:00;102338.06;;;31.36;35.86
71485;BME280;59300;52.074;4.758;2022-08-11T08:16:04;102342.63;;;30.96;35.68
71485;BME280;59300;52.074;4.758;2022-08-11T08:19:05;102347.66;;;31.20;35.50
71485;BME280;59300;52.074;4.758;2022-08-11T08:22:07;102346.53;;;32.20;34.04
71485;BME280;59300;52.074;4.758;2022-08-11T08:25:34;102349.44;;;32.46;33.20
71485;BME280;59300;52.074;4.758;2022-08-11T08:28:45;102350.16;;;32.76;32.89
71485;BME280;59300;52.074;4.758;2022-08-11T08:31:55;102344.69;;;33.66;31.42
71485;BME280;59300;52.074;4.758;2022-08-11T08:35:02;102338.13;;;34.04;30.57
71485;BME280;59300;52.074;4.758;2022-08-11T08:38:06;102340.41;;;33.09;32.68
71485;BME280;59300;52.074;4.758;2022-08-11T08:41:08;102344.50;;;33.05;32.94
71485;BME280;59300;52.074;4.758;2022-08-11T08:44:22;102339.56;;;32.63;33.88
71485;BME280;59300;52.074;4.758;2022-08-11T08:48:07;102341.59;;;32.33;33.69
71485;BME280;59300;52.074;4.758;2022-08-11T08:51:10;102335.94;;;33.63;31.59
71485;BME280;59300;52.074;4.758;2022-08-11T08:54:16;102341.59;;;32.89;34.08
71485;BME280;59300;52.074;4.758;2022-08-11T08:57:22;102339.97;;;33.32;32.93
71485;BME280;59300;52.074;4.758;2022-08-11T09:00:24;102337.63;;;33.01;33.59
71485;BME280;59300;52.074;4.758;2022-08-11T09:03:26;102343.06;;;34.00;31.32
71485;BME280;59300;52.074;4.758;2022-08-11T09:06:48;102333.38;;;32.89;34.05
71485;BME280;59300;52.074;4.758;2022-08-11T09:09:56;102335.59;;;33.03;32.69
71485;BME280;59300;52.074;4.758;2022-08-11T09:12:59;102325.09;;;33.53;31.30
71485;BME280;59300;52.074;4.758;2022-08-11T09:16:04;102327.88;;;33.35;32.46
71485;BME280;59300;52.074;4.758;2022-08-11T09:19:06;102334.47;;;32.96;34.25
71485;BME280;59300;52.074;4.758;2022-08-11T09:22:08;102331.72;;;32.22;35.03
71485;BME280;59300;52.074;4.758;2022-08-11T09:25:10;102319.72;;;32.33;34.45
71485;BME280;59300;52.074;4.758;2022-08-11T09:28:14;102324.50;;;32.31;33.35
71485;BME280;59300;52.074;4.758;2022-08-11T09:31:16;102320.09;;;33.75;30.39
71485;BME280;59300;52.074;4.758;2022-08-11T09:34:18;102313.59;;;33.76;31.05
71485;BME280;59300;52.074;4.758;2022-08-11T09:37:20;102315.41;;;34.54;28.53
71485;BME280;59300;52.074;4.758;2022-08-11T09:40:46;102313.00;;;34.59;29.34
71485;BME280;59300;52.074;4.758;2022-08-11T09:43:58;102308.34;;;33.56;30.75
71485;BME280;59300;52.074;4.758;2022-08-11T09:47:05;102315.97;;;32.62;32.42
71485;BME280;59300;52.074;4.758;2022-08-11T09:50:09;102307.66;;;31.98;33.38
71485;BME280;59300;52.074;4.758;2022-08-11T09:53:11;102311.44;;;32.15;32.96
71485;BME280;59300;52.074;4.758;2022-08-11T09:56:35;102306.91;;;32.43;31.69
71485;BME280;59300;52.074;4.758;2022-08-11T09:59:37;102300.25;;;33.28;29.88
71485;BME280;59300;52.074;4.758;2022-08-11T10:02:45;102310.09;;;33.21;29.18
71485;BME280;59300;52.074;4.758;2022-08-11T10:05:49;102304.84;;;32.45;30.51
71485;BME280;59300;52.074;4.758;2022-08-11T10:08:53;102300.22;;;32.56;30.32
71485;BME280;59300;52.074;4.758;2022-08-11T10:11:56;102299.69;;;32.14;32.25
71485;BME280;59300;52.074;4.758;2022-08-11T10:15:03;102300.09;;;32.93;30.05
71485;BME280;59300;52.074;4.758;2022-08-11T10:18:08;102290.88;;;33.13;29.31
71485;BME280;59300;52.074;4.758;2022-08-11T10:24:30;102280.72;;;33.67;26.84
71485;BME280;59300;52.074;4.758;2022-08-11T10:27:32;102283.66;;;33.48;26.82
71485;BME280;59300;52.074;4.758;2022-08-11T10:30:54;102278.16;;;32.39;29.53
71485;BME280;59300;52.074;4.758;2022-08-11T10:33:57;102283.81;;;32.56;28.51
71485;BME280;59300;52.074;4.758;2022-08-11T10:37:00;102272.66;;;32.11;29.32
71485;BME280;59300;52.074;4.758;2022-08-11T10:40:04;102270.03;;;32.47;29.18
71485;BME280;59300;52.074;4.758;2022-08-11T10:43:07;102268.53;;;32.99;26.61
71485;BME280;59300;52.074;4.758;2022-08-11T10:46:09;102257.44;;;33.72;25.51
71485;BME280;59300;52.074;4.758;2022-08-11T10:49:12;102267.41;;;33.28;26.44
71485;BME280;59300;52.074;4.758;2022-08-11T10:52:13;102264.41;;;33.13;27.82
71485;BME280;59300;52.074;4.758;2022-08-11T10:55:17;102254.38;;;33.04;27.40
71485;BME280;59300;52.074;4.758;2022-08-11T10:58:18;102251.03;;;33.81;26.19
71485;BME280;59300;52.074;4.758;2022-08-11T11:01:32;102261.94;;;32.00;27.88
71485;BME280;59300;52.074;4.758;2022-08-11T11:04:56;102256.47;;;33.28;26.39
71485;BME280;59300;52.074;4.758;2022-08-11T11:08:13;102260.06;;;32.74;27.36
71485;BME280;59300;52.074;4.758;2022-08-11T11:11:16;102257.28;;;32.66;27.73
71485;BME280;59300;52.074;4.758;2022-08-11T11:14:21;102252.44;;;32.96;26.97
71485;BME280;59300;52.074;4.758;2022-08-11T11:17:44;102248.22;;;32.84;29.17
71485;BME280;59300;52.074;4.758;2022-08-11T11:20:52;102245.50;;;33.46;27.27
71485;BME280;59300;52.074;4.758;2022-08-11T11:34:41;102233.03;;;32.35;29.27
71485;BME280;59300;52.074;4.758;2022-08-11T11:37:55;102234.56;;;32.84;29.22
71485;BME280;59300;52.074;4.758;2022-08-11T11:41:06;102235.09;;;31.95;30.00
71485;BME280;59300;52.074;4.758;2022-08-11T11:44:10;102232.84;;;32.19;29.91
71485;BME280;59300;52.074;4.758;2022-08-11T11:47:14;102233.69;;;32.65;29.57
71485;BME280;59300;52.074;4.758;2022-08-11T11:53:32;102220.63;;;33.92;27.64
71485;BME280;59300;52.074;4.758;2022-08-11T11:56:34;102222.91;;;33.71;26.30
71485;BME280;59300;52.074;4.758;2022-08-11T11:59:37;102223.56;;;33.73;24.18
71485;BME280;59300;52.074;4.758;2022-08-11T12:02:39;102212.84;;;34.22;24.34
71485;BME280;59300;52.074;4.758;2022-08-11T12:05:42;102217.09;;;33.74;26.10
71485;BME280;59300;52.074;4.758;2022-08-11T12:08:47;102220.72;;;34.25;25.17
71485;BME280;59300;52.074;4.758;2022-08-11T12:11:49;102212.16;;;33.77;25.27
71485;BME280;59300;52.074;4.758;2022-08-11T12:14:53;102210.41;;;32.97;26.68
71485;BME280;59300;52.074;4.758;2022-08-11T12:17:55;102207.00;;;32.95;26.88
71485;BME280;59300;52.074;4.758;2022-08-11T12:20:59;102201.19;;;32.62;26.69
71485;BME280;59300;52.074;4.758;2022-08-11T12:24:02;102198.34;;;32.82;24.55
71485;BME280;59300;52.074;4.758;2022-08-11T12:27:05;102197.69;;;33.59;22.17
71485;BME280;59300;52.074;4.758;2022-08-11T12:30:18;102191.06;;;33.69;21.96
71485;BME280;59300;52.074;4.758;2022-08-11T12:33:20;102189.03;;;34.14;21.69
71485;BME280;59300;52.074;4.758;2022-08-11T12:36:24;102185.72;;;34.87;21.00
71485;BME280;59300;52.074;4.758;2022-08-11T12:39:30;102178.34;;;34.46;21.78
71485;BME280;59300;52.074;4.758;2022-08-11T12:42:57;102182.97;;;34.87;21.17
71485;BME280;59300;52.074;4.758;2022-08-11T12:46:09;102176.13;;;34.50;20.28
71485;BME280;59300;52.074;4.758;2022-08-11T12:49:14;102169.28;;;34.62;21.22
71485;BME280;59300;52.074;4.758;2022-08-11T12:52:22;102166.94;;;34.08;21.96
71485;BME280;59300;52.074;4.758;2022-08-11T12:55:25;102165.84;;;34.52;21.32
71485;BME280;59300;52.074;4.758;2022-08-11T12:58:27;102157.69;;;34.09;23.38
71485;BME280;59300;52.074;4.758;2022-08-11T13:01:29;102162.16;;;34.26;22.73
71485;BME280;59300;52.074;4.758;2022-08-11T13:04:31;102158.47;;;35.02;21.99
71485;BME280;59300;52.074;4.758;2022-08-11T13:07:33;102154.28;;;34.07;24.22
71485;BME280;59300;52.074;4.758;2022-08-11T13:10:54;102142.69;;;34.79;21.39
71485;BME280;59300;52.074;4.758;2022-08-11T13:13:56;102140.97;;;34.61;23.67
71485;BME280;59300;52.074;4.758;2022-08-11T13:16:58;102145.06;;;34.33;25.81
71485;BME280;59300;52.074;4.758;2022-08-11T13:20:01;102130.28;;;33.58;26.83
71485;BME280;59300;52.074;4.758;2022-08-11T13:23:04;102138.69;;;34.07;27.38
71485;BME280;59300;52.074;4.758;2022-08-11T13:26:06;102140.66;;;34.56;25.35
71485;BME280;59300;52.074;4.758;2022-08-11T13:29:09;102135.34;;;33.87;26.44
71485;BME280;59300;52.074;4.758;2022-08-11T13:32:12;102129.03;;;32.91;27.11
71485;BME280;59300;52.074;4.758;2022-08-11T13:35:15;102132.56;;;32.65;27.38
71485;BME280;59300;52.074;4.758;2022-08-11T13:38:19;102125.38;;;33.08;26.38
71485;BME280;59300;52.074;4.758;2022-08-11T13:41:22;102120.44;;;33.38;26.93
71485;BME280;59300;52.074;4.758;2022-08-11T13:44:26;102125.13;;;32.75;27.81
71485;BME280;59300;52.074;4.758;2022-08-11T13:47:29;102130.13;;;32.62;27.94
71485;BME280;59300;52.074;4.758;2022-08-11T13:50:31;102125.78;;;32.69;27.27
71485;BME280;59300;52.074;4.758;2022-08-11T13:53:34;102114.53;;;32.36;27.93
71485;BME280;59300;52.074;4.758;2022-08-11T13:56:37;102120.41;;;32.41;28.23
71485;BME280;59300;52.074;4.758;2022-08-11T13:59:40;102118.75;;;32.30;27.99
71485;BME280;59300;52.074;4.758;2022-08-11T14:02:52;102114.06;;;32.59;27.52
71485;BME280;59300;52.074;4.758;2022-08-11T14:06:01;102117.50;;;32.61;27.52
71485;BME280;59300;52.074;4.758;2022-08-11T14:09:07;102115.81;;;33.13;26.91
71485;BME280;59300;52.074;4.758;2022-08-11T14:12:20;102110.94;;;32.54;27.91
71485;BME280;59300;52.074;4.758;2022-08-11T14:15:31;102105.19;;;32.57;27.76
71485;BME280;59300;52.074;4.758;2022-08-11T14:18:33;102098.03;;;32.64;26.48
71485;BME280;59300;52.074;4.758;2022-08-11T14:21:37;102096.06;;;32.48;27.01
71485;BME280;59300;52.074;4.758;2022-08-11T14:24:44;102087.63;;;32.41;27.50
71485;BME280;59300;52.074;4.758;2022-08-11T14:27:46;102087.09;;;31.74;28.15
71485;BME280;59300;52.074;4.758;2022-08-11T14:31:08;102087.69;;;32.13;27.58
71485;BME280;59300;52.074;4.758;2022-08-11T14:34:11;102084.41;;;31.92;27.86
71485;BME280;59300;52.074;4.758;2022-08-11T14:37:18;102081.97;;;31.61;29.20
71485;BME280;59300;52.074;4.758;2022-08-11T14:40:20;102090.06;;;31.52;28.95
71485;BME280;59300;52.074;4.758;2022-08-11T14:43:22;102086.53;;;31.70;29.06
71485;BME280;59300;52.074;4.758;2022-08-11T14:46:45;102083.03;;;31.50;29.04
71485;BME280;59300;52.074;4.758;2022-08-11T14:49:47;102081.59;;;32.20;28.47
71485;BME280;59300;52.074;4.758;2022-08-11T14:53:10;102082.03;;;31.97;28.31
71485;BME280;59300;52.074;4.758;2022-08-11T14:56:18;102074.50;;;31.91;28.59
71485;BME280;59300;52.074;4.758;2022-08-11T14:59:20;102084.84;;;31.59;28.47
71485;BME280;59300;52.074;4.758;2022-08-11T15:02:22;102073.63;;;31.62;29.43
71485;BME280;59300;52.074;4.758;2022-08-11T15:05:25;102072.69;;;31.53;28.88
71485;BME280;59300;52.074;4.758;2022-08-11T15:08:29;102069.84;;;31.73;27.62
71485;BME280;59300;52.074;4.758;2022-08-11T15:11:33;102056.66;;;31.13;28.66
71485;BME280;59300;52.074;4.758;2022-08-11T15:14:35;102069.91;;;30.78;30.26
71485;BME280;59300;52.074;4.758;2022-08-11T15:17:38;102068.31;;;30.85;30.06
71485;BME280;59300;52.074;4.758;2022-08-11T15:20:44;102065.78;;;30.64;29.15
71485;BME280;59300;52.074;4.758;2022-08-11T15:23:45;102067.38;;;30.57;30.30
71485;BME280;59300;52.074;4.758;2022-08-11T15:26:48;102061.91;;;30.67;29.73
71485;BME280;59300;52.074;4.758;2022-08-11T15:29:51;102060.03;;;30.77;30.46
71485;BME280;59300;52.074;4.758;2022-08-11T15:32:55;102052.31;;;31.10;29.13
71485;BME280;59300;52.074;4.758;2022-08-11T15:36:05;102053.50;;;30.98;29.83
71485;BME280;59300;52.074;4.758;2022-08-11T15:39:22;102053.28;;;31.29;29.33
71485;BME280;59300;52.074;4.758;2022-08-11T15:42:24;102042.97;;;31.22;29.77
71485;BME280;59300;52.074;4.758;2022-08-11T15:45:26;102046.66;;;30.84;30.10
71485;BME280;59300;52.074;4.758;2022-08-11T15:52:05;102037.25;;;30.68;30.29
71485;BME280;59300;52.074;4.758;2022-08-11T15:55:08;102030.63;;;30.71;31.00
71485;BME280;59300;52.074;4.758;2022-08-11T15:58:11;102035.59;;;30.85;30.72
71485;BME280;59300;52.074;4.758;2022-08-11T16:01:14;102030.03;;;30.87;30.77
71485;BME280;59300;52.074;4.758;2022-08-11T16:04:20;102028.25;;;30.95;30.21
71485;BME280;59300;52.074;4.758;2022-08-11T16:07:27;102024.31;;;30.80;30.57
71485;BME280;59300;52.074;4.758;2022-08-11T16:10:33;102024.59;;;30.77;30.32
71485;BME280;59300;52.074;4.758;2022-08-11T16:13:36;102017.19;;;30.30;31.53
71485;BME280;59300;52.074;4.758;2022-08-11T16:16:40;102010.75;;;30.21;31.73
71485;BME280;59300;52.074;4.758;2022-08-11T16:19:44;102011.03;;;30.47;31.38
71485;BME280;59300;52.074;4.758;2022-08-11T16:22:48;102005.59;;;30.38;31.52
71485;BME280;59300;52.074;4.758;2022-08-11T16:26:04;102004.34;;;30.02;32.97
71485;BME280;59300;52.074;4.758;2022-08-11T16:29:28;101995.72;;;30.07;32.86
71485;BME280;59300;52.074;4.758;2022-08-11T16:32:32;101998.84;;;29.93;33.47
71485;BME280;59300;52.074;4.758;2022-08-11T16:35:36;101999.44;;;29.96;33.29
71485;BME280;59300;52.074;4.758;2022-08-11T16:38:37;101993.69;;;29.80;33.74
71485;BME280;59300;52.074;4.758;2022-08-11T16:41:41;101988.25;;;29.80;33.69
71485;BME280;59300;52.074;4.758;2022-08-11T16:44:43;101992.53;;;29.72;33.82
71485;BME280;59300;52.074;4.758;2022-08-11T16:47:45;101986.78;;;29.46;33.94
71485;BME280;59300;52.074;4.758;2022-08-11T16:51:10;101984.47;;;29.51;34.02
71485;BME280;59300;52.074;4.758;2022-08-11T16:54:12;101983.63;;;29.51;34.28
71485;BME280;59300;52.074;4.758;2022-08-11T16:57:17;101986.47;;;29.39;35.14
71485;BME280;59300;52.074;4.758;2022-08-11T17:00:21;101990.47;;;29.35;34.31
71485;BME280;59300;52.074;4.758;2022-08-11T17:03:23;101987.09;;;29.22;35.10
71485;BME280;59300;52.074;4.758;2022-08-11T17:06:25;101980.63;;;29.13;35.36
71485;BME280;59300;52.074;4.758;2022-08-11T17:09:29;101977.13;;;28.91;35.31
71485;BME280;59300;52.074;4.758;2022-08-11T17:12:32;101975.91;;;28.74;35.83
71485;BME280;59300;52.074;4.758;2022-08-11T17:15:43;101976.28;;;28.70;36.07
71485;BME280;59300;52.074;4.758;2022-08-11T17:19:07;101977.88;;;28.72;36.22
71485;BME280;59300;52.074;4.758;2022-08-11T17:22:10;101978.47;;;28.76;36.61
71485;BME280;59300;52.074;4.758;2022-08-11T17:25:11;101980.91;;;28.58;36.93
71485;BME280;59300;52.074;4.758;2022-08-11T17:28:14;101979.16;;;28.47;36.95
71485;BME280;59300;52.074;4.758;2022-08-11T17:31:19;101976.44;;;28.26;37.74
71485;BME280;59300;52.074;4.758;2022-08-11T17:34:23;101974.81;;;28.02;37.39
71485;BME280;59300;52.074;4.758;2022-08-11T17:37:26;101962.72;;;27.95;37.52
71485;BME280;59300;52.074;4.758;2022-08-11T17:40:30;101968.94;;;27.85;38.03
71485;BME280;59300;52.074;4.758;2022-08-11T17:43:33;101971.94;;;27.71;38.75
71485;BME280;59300;52.074;4.758;2022-08-11T17:46:35;101978.41;;;27.58;39.48
71485;BME280;59300;52.074;4.758;2022-08-11T17:49:38;101980.28;;;27.47;39.23
71485;BME280;59300;52.074;4.758;2022-08-11T17:52:42;101975.34;;;27.29;39.97
71485;BME280;59300;52.074;4.758;2022-08-11T17:55:45;101984.84;;;27.12;40.35
71485;BME280;59300;52.074;4.758;2022-08-11T17:58:55;101987.66;;;26.99;41.05
71485;BME280;59300;52.074;4.758;2022-08-11T18:02:01;101992.06;;;26.77;41.03
71485;BME280;59300;52.074;4.758;2022-08-11T18:05:06;101988.97;;;26.59;41.91
71485;BME280;59300;52.074;4.758;2022-08-11T18:08:13;101988.44;;;26.43;42.33
71485;BME280;59300;52.074;4.758;2022-08-11T18:11:18;101994.94;;;26.29;42.78
71485;BME280;59300;52.074;4.758;2022-08-11T18:14:52;101997.41;;;26.07;44.19
71485;BME280;59300;52.074;4.758;2022-08-11T18:17:54;101994.13;;;25.91;44.87
71485;BME280;59300;52.074;4.758;2022-08-11T18:20:56;102000.97;;;25.84;45.63
71485;BME280;59300;52.074;4.758;2022-08-11T18:24:02;101991.09;;;25.71;45.75
71485;BME280;59300;52.074;4.758;2022-08-11T18:27:04;101996.44;;;25.60;46.57
71485;BME280;59300;52.074;4.758;2022-08-11T18:30:07;101994.63;;;25.48;47.19
71485;BME280;59300;52.074;4.758;2022-08-11T18:33:10;101990.84;;;25.37;47.61
71485;BME280;59300;52.074;4.758;2022-08-11T18:36:53;102002.00;;;25.20;48.40
71485;BME280;59300;52.074;4.758;2022-08-11T18:39:59;102009.03;;;25.09;48.94
71485;BME280;59300;52.074;4.758;2022-08-11T18:43:04;102004.41;;;24.98;48.96
71485;BME280;59300;52.074;4.758;2022-08-11T18:46:08;102008.72;;;24.88;49.87
71485;BME280;59300;52.074;4.758;2022-08-11T18:49:18;102013.38;;;24.73;49.97
71485;BME280;59300;52.074;4.758;2022-08-11T18:52:24;102016.91;;;24.61;51.02
71485;BME280;59300;52.074;4.758;2022-08-11T18:55:27;102015.81;;;24.50;51.50
71485;BME280;59300;52.074;4.758;2022-08-11T18:58:32;102022.06;;;24.38;52.27
71485;BME280;59300;52.074;4.758;2022-08-11T19:01:36;102016.94;;;24.20;52.81